Latest Weather Observations for Burketown Airport

IDQ60801

Issued at 2:02 pm EST Monday 27 April 2015 (issued every 30 minutes, with the page automatically refreshed every 10 minutes)

About weather observations | Map of weather stations | Latest weather observations for QLD | Other Formats
Station Details ID: 029077 Name: BURKETOWN AIRPORT Lat: -17.75 Lon: 139.54 Height: 5.7 m
Data from the previous 72 hours. | See also: Recent months at Burketown Airport
Date/Time
EST
Temp
°C
App
Temp
°C
Dew
Point
Rel
Hum
%
Delta-T
°C
Wind Press
QNH
hPa
Press
MSL
hPa
Rain
since 9 am
mm
Dir
 
Spd
km/h
Gust
km/h
Spd
kts
Gust
kts
27/02:00pm 31.3 24.8 -2.6 11 15.6 SE 22 35 12 19 1013.7 - 0.0
27/01:30pm 31.0 24.3 -4.1 10 15.7 SE 22 35 12 19 1014.1 - 0.0
27/01:00pm 30.0 22.6 -3.6 11 15.1 SSE 26 35 14 19 1014.5 - 0.0
27/12:30pm 30.4 22.7 -3.3 11 15.2 SSE 28 37 15 20 1015.0 - 0.0
27/12:00pm 29.1 21.2 -4.3 11 14.7 SSE 28 41 15 22 1015.5 1015.4 0.0
27/11:30am 28.2 19.8 -2.8 13 13.9 SSE 32 43 17 23 1016.0 - 0.0
27/11:00am 27.0 18.3 -3.7 13 13.4 SE 33 46 18 25 1016.4 - 0.0
27/10:30am 26.1 17.0 -3.5 14 12.9 SSE 35 46 19 25 1016.8 - 0.0
27/10:00am 25.1 15.3 -3.3 15 12.3 SE 39 50 21 27 1017.2 - 0.0
27/09:30am 24.1 14.3 -3.3 16 11.8 SE 39 50 21 27 1017.0 - 0.0
27/09:00am 22.2 13.2 -2.5 19 10.6 SSE 35 48 19 26 1017.0 1016.9 0.0
27/08:30am 20.7 12.1 -2.4 21 9.8 SSE 33 46 18 25 1017.0 - 0.0
27/08:00am 19.9 12.4 -1.2 24 9.1 SSE 28 39 15 21 1016.8 - 0.0
27/07:30am 17.9 11.7 -0.4 29 7.9 S 22 28 12 15 1016.5 - 0.0
27/07:00am 17.2 11.0 -0.1 31 7.4 S 22 28 12 15 1016.3 - 0.0
27/06:30am 17.1 11.4 0.3 32 7.3 S 20 24 11 13 1016.0 - 0.0
27/06:00am 17.3 11.5 0.0 31 7.4 S 20 26 11 14 1015.8 1015.7 0.0
27/05:30am 17.6 12.1 0.3 31 7.5 S 19 24 10 13 1015.6 - 0.0
27/05:00am 18.0 12.5 0.6 31 7.6 S 19 24 10 13 1015.5 - 0.0
27/04:30am 18.4 12.9 0.5 30 7.9 S 19 20 10 11 1015.5 - 0.0
27/04:00am 19.1 14.0 0.7 29 8.2 S 17 24 9 13 1015.5 - 0.0
27/03:30am 19.9 14.4 0.4 27 8.7 SSE 19 24 10 13 1015.5 - 0.0
27/03:00am 21.2 15.1 0.4 25 9.3 SSE 22 28 12 15 1015.4 1015.3 0.0
27/02:30am 21.3 16.2 0.5 25 9.4 SSE 17 22 9 12 1015.2 - 0.0
27/02:00am 21.7 16.2 0.8 25 9.5 SSE 19 24 10 13 1015.2 - 0.0
27/01:30am 22.1 16.4 0.6 24 9.8 SSE 20 26 11 14 1015.3 - 0.0
27/01:00am 22.3 16.2 0.2 23 10.0 S 22 28 12 15 1015.4 - 0.0
27/12:30am 22.2 16.1 0.1 23 10.0 S 22 30 12 16 1015.6 - 0.0
27/12:00am 21.9 16.1 -0.1 23 9.8 S 20 24 11 13 1015.8 1015.7 0.0
 
Date/Time
EST
Temp
°C
App
Temp
°C
Dew
Point
Rel
Hum
%
Delta-T
°C
Wind Press
QNH
hPa
Press
MSL
hPa
Rain
since 9 am
mm
Dir
 
Spd
km/h
Gust
km/h
Spd
kts
Gust
kts
26/11:30pm 21.3 15.5 -0.1 24 9.5 S 20 24 11 13 1015.9 - 0.0
26/11:00pm 20.6 15.4 0.4 26 9.0 S 17 20 9 11 1016.2 - 0.0
26/10:30pm 20.6 15.8 0.4 26 9.0 S 15 17 8 9 1016.3 - 0.0
26/10:00pm 21.7 16.5 0.3 24 9.6 S 17 20 9 11 1016.4 - 0.0
26/09:30pm 22.2 17.0 0.1 23 10.0 S 17 20 9 11 1016.4 - 0.0
26/09:00pm 22.4 17.7 0.9 24 9.8 S 15 19 8 10 1016.2 1016.1 0.0
26/08:30pm 23.4 18.4 1.1 23 10.3 S 17 19 9 10 1015.9 - 0.0
26/08:00pm 22.4 18.2 1.4 25 9.7 S 13 15 7 8 1015.5 - 0.0
26/07:30pm 23.4 19.6 1.7 24 10.2 S 11 11 6 6 1015.1 - 0.0
26/07:00pm 25.3 21.1 1.4 21 11.3 S 13 15 7 8 1014.7 - 0.0
26/06:30pm 27.2 21.9 1.6 19 12.3 S 19 24 10 13 1014.2 - 0.0
26/06:00pm 28.6 23.0 1.2 17 13.2 SSE 20 26 11 14 1014.0 1013.9 0.0
26/05:30pm 29.4 22.6 1.0 16 13.7 S 26 35 14 19 1013.7 - 0.0
26/05:00pm 29.7 23.3 1.2 16 13.9 S 24 32 13 17 1013.4 - 0.0
26/04:30pm 30.1 23.0 1.5 16 14.0 S 28 35 15 19 1013.2 - 0.0
26/04:00pm 30.2 23.5 1.6 16 14.1 SSE 26 35 14 19 1013.1 - 0.0
26/03:30pm 29.7 23.0 1.2 16 13.9 SSE 26 35 14 19 1013.0 - 0.0
26/03:00pm 30.4 23.8 1.8 16 14.1 SSE 26 37 14 20 1013.2 1013.1 0.0
26/02:44pm 29.7 22.6 1.2 16 13.9 S 28 48 15 26 1013.3 - 0.0
26/02:30pm 30.0 22.9 1.5 16 14.0 SSE 28 35 15 19 1013.5 - 0.0
26/02:00pm 29.0 22.2 0.7 16 13.6 SSE 26 37 14 20 1013.8 - 0.0
26/01:30pm 28.6 20.6 0.3 16 13.4 SSE 32 44 17 24 1014.3 - 0.0
26/01:00pm 28.3 21.1 0.9 17 13.1 SSE 28 39 15 21 1014.7 - 0.0
26/12:30pm 27.9 20.7 0.6 17 13.0 S 28 41 15 22 1015.2 - 0.0
26/12:00pm 26.7 18.1 0.4 18 12.3 SSE 35 46 19 25 1015.9 1015.8 0.0
26/11:30am 26.6 18.4 0.4 18 12.3 SSE 33 48 18 26 1016.2 - 0.0
26/11:00am 25.8 17.6 0.5 19 11.8 SSE 33 44 18 24 1016.8 - 0.0
26/10:49am 25.0 16.3 -0.2 19 11.5 SSE 35 54 19 29 1017.1 - 0.0
26/10:30am 25.1 16.1 -0.1 19 11.6 SSE 37 48 20 26 1017.4 - 0.0
26/10:00am 23.6 14.6 0.0 21 10.7 SSE 37 50 20 27 1017.7 - 0.0
26/09:33am 23.3 14.0 0.4 22 10.5 SSE 39 57 21 31 1017.7 - 0.0
26/09:30am 22.9 13.1 0.1 22 10.3 SSE 41 57 22 31 1017.8 - 0.0
26/09:00am 21.8 11.7 0.4 24 9.6 SSE 43 56 23 30 1017.4 1017.3 0.0
26/08:30am 21.2 11.6 1.0 26 9.2 SSE 41 56 22 30 1017.2 - 0.0
26/08:05am 20.6 11.7 1.0 27 8.9 SSE 37 57 20 31 1016.9 - 0.0
26/08:00am 20.6 12.2 1.5 28 8.7 SSE 35 44 19 24 1016.9 - 0.0
26/07:30am 20.0 12.2 1.9 30 8.3 SSE 32 41 17 22 1016.6 - 0.0
26/07:00am 19.9 12.6 2.3 31 8.1 SSE 30 39 16 21 1016.0 - 0.0
26/06:30am 19.8 13.7 2.6 32 8.0 SSE 24 30 13 16 1015.7 - 0.0
26/06:00am 20.1 13.6 2.9 32 8.0 SSE 26 37 14 20 1015.2 1015.1 0.0
26/05:30am 20.7 13.9 3.0 31 8.3 SSE 28 37 15 20 1014.9 - 0.0
26/05:00am 21.2 13.6 3.0 30 8.6 SSE 32 43 17 23 1014.6 - 0.0
26/04:30am 21.2 14.8 3.0 30 8.6 S 26 35 14 19 1014.5 - 0.0
26/04:00am 21.8 15.0 3.0 29 8.9 S 28 39 15 21 1014.4 - 0.0
26/03:30am 21.8 15.3 2.5 28 9.1 S 26 35 14 19 1014.1 - 0.0
26/03:00am 22.2 15.6 2.3 27 9.4 S 26 33 14 18 1014.1 1014.0 0.0
26/02:30am 22.8 15.5 2.3 26 9.7 S 30 41 16 22 1014.1 - 0.0
26/02:00am 23.3 16.3 2.2 25 10.0 S 28 35 15 19 1014.3 - 0.0
26/01:30am 23.6 16.7 2.4 25 10.1 S 28 37 15 20 1014.3 - 0.0
26/01:00am 24.1 17.2 2.3 24 10.4 S 28 35 15 19 1014.3 - 0.0
26/12:30am 24.1 18.0 2.9 25 10.2 S 24 33 13 18 1014.5 - 0.0
26/12:00am 24.5 18.1 3.2 25 10.4 S 26 33 14 18 1014.5 1014.4 0.0
 
Date/Time
EST
Temp
°C
App
Temp
°C
Dew
Point
Rel
Hum
%
Delta-T
°C
Wind Press
QNH
hPa
Press
MSL
hPa
Rain
since 9 am
mm
Dir
 
Spd
km/h
Gust
km/h
Spd
kts
Gust
kts
25/11:30pm 24.7 18.7 3.4 25 10.4 S 24 33 13 18 1014.5 - 0.0
25/11:00pm 24.5 19.1 2.6 24 10.5 S 20 24 11 13 1014.4 - 0.0
25/10:30pm 24.9 19.7 2.4 23 10.8 S 19 24 10 13 1014.4 - 0.0
25/10:00pm 24.1 19.2 1.7 23 10.6 S 17 22 9 12 1014.3 - 0.0
25/09:30pm 22.7 18.4 1.1 24 10.0 S 13 15 7 8 1014.2 - 0.0
25/09:00pm 23.1 18.9 1.4 24 10.1 S 13 13 7 7 1014.0 1013.9 0.0
25/08:30pm 24.8 20.4 0.3 20 11.3 S 13 15 7 8 1013.6 - 0.0
25/08:00pm 26.0 21.2 -0.1 18 12.1 S 15 17 8 9 1013.1 - 0.0
25/07:30pm 27.6 22.3 -0.5 16 13.1 S 17 19 9 10 1012.6 - 0.0
25/07:00pm 28.8 23.1 -0.4 15 13.7 S 19 22 10 12 1012.0 - 0.0
25/06:30pm 30.0 24.0 -1.4 13 14.6 S 20 26 11 14 1011.9 - 0.0
25/06:00pm 31.3 24.5 -1.5 12 15.4 SSE 24 33 13 18 1011.4 1011.3 0.0
25/05:30pm 32.1 25.3 -2.0 11 16.0 SSE 24 32 13 17 1011.1 - 0.0
25/05:00pm 33.0 25.3 -2.6 10 16.6 S 28 37 15 20 1010.6 - 0.0
25/04:51pm 33.1 25.4 -2.6 10 16.7 S 28 48 15 26 1010.6 - 0.0
25/04:30pm 33.2 25.6 -2.5 10 16.7 SSE 28 39 15 21 1010.3 - 0.0
25/04:00pm 33.2 25.2 -2.5 10 16.7 S 30 41 16 22 1010.0 - 0.0
25/03:30pm 33.7 25.7 -2.1 10 16.9 SSE 30 43 16 23 1010.0 - 0.0
25/03:00pm 33.2 26.3 -2.5 10 16.7 SE 24 35 13 19 1010.1 1010.0 0.0
25/02:30pm 33.8 26.6 -2.0 10 17.0 SSE 26 35 14 19 1010.3 - 0.0
25/02:00pm 33.2 25.0 -1.2 11 16.5 S 32 43 17 23 1010.6 - 0.0
25/01:30pm 32.9 25.8 -1.4 11 16.3 SE 26 39 14 21 1011.0 - 0.0
25/01:00pm 32.6 25.1 -1.7 11 16.2 SSE 28 41 15 22 1011.4 - 0.0
25/12:30pm 31.4 23.5 -1.4 12 15.4 SSE 30 44 16 24 1011.9 - 0.0
25/12:00pm 30.9 22.5 -0.7 13 15.0 SSE 33 43 18 23 1012.5 1012.4 0.0
25/11:30am 31.5 23.4 -0.2 13 15.2 SSE 32 46 17 25 1012.9 - 0.0
25/11:00am 30.3 21.3 -0.1 14 14.5 SSE 37 48 20 26 1013.4 - 0.0
25/10:30am 29.6 20.6 0.2 15 14.0 SSE 37 48 20 26 1013.8 - 0.0
25/10:00am 28.2 18.8 0.0 16 13.3 SSE 39 52 21 28 1014.0 - 0.0
25/09:30am 27.2 18.3 0.8 18 12.5 SSE 37 50 20 27 1013.9 - 0.0
25/09:01am 25.9 18.3 0.5 19 11.9 SSE 30 48 16 26 1013.8 - 0.0
25/09:00am 26.0 18.4 0.6 19 11.9 SSE 30 39 16 21 1013.8 1013.7 0.0
25/08:30am 24.7 17.9 0.9 21 11.1 S 26 35 14 19 1013.4 - 0.0
25/08:00am 22.9 16.5 0.7 23 10.2 S 24 33 13 18 1013.1 - 0.0
25/07:30am 20.0 15.0 1.4 29 8.4 S 17 20 9 11 1012.7 - 0.0
25/07:00am 18.7 14.1 1.7 32 7.7 S 15 17 8 9 1012.1 - 0.0
25/06:30am 19.1 14.6 2.0 32 7.8 S 15 17 8 9 1011.8 - 0.0
25/06:00am 19.3 14.7 1.8 31 8.0 S 15 17 8 9 1011.4 1011.3 0.0
25/05:30am 19.3 14.8 2.2 32 7.8 S 15 17 8 9 1011.3 - 0.0
25/05:00am 19.6 15.1 2.0 31 8.1 S 15 17 8 9 1011.0 - 0.0
25/04:30am 20.0 15.5 1.9 30 8.3 S 15 19 8 10 1010.9 - 0.0
25/04:00am 20.2 15.6 1.6 29 8.5 S 15 17 8 9 1010.8 - 0.0
25/03:30am 20.4 15.9 2.3 30 8.4 SSW 15 17 8 9 1010.8 - 0.0
25/03:00am 19.9 16.0 3.2 33 7.9 SSW 13 15 7 8 1010.8 1010.7 0.0
25/02:30am 19.2 15.6 4.9 39 6.9 SSW 13 15 7 8 1011.0 - 0.0
25/02:00am 18.0 15.3 8.8 55 4.8 WSW 13 15 7 8 1011.1 - 0.0
25/01:30am 18.5 16.1 10.1 58 4.5 WSW 13 15 7 8 1010.9 - 0.0
25/01:00am 18.3 16.8 10.4 60 4.2 W 9 11 5 6 1011.0 - 0.0
25/12:30am 19.4 17.9 10.4 56 4.8 W 9 9 5 5 1011.1 - 0.0
25/12:00am 19.2 17.6 10.2 56 4.8 W 9 9 5 5 1011.3 1011.2 0.0
 
Date/Time
EST
Temp
°C
App
Temp
°C
Dew
Point
Rel
Hum
%
Delta-T
°C
Wind Press
QNH
hPa
Press
MSL
hPa
Rain
since 9 am
mm
Dir
 
Spd
km/h
Gust
km/h
Spd
kts
Gust
kts
24/11:30pm 19.2 17.9 9.9 55 5.0 W 7 9 4 5 1011.4 - 0.0
24/11:00pm 19.5 17.1 10.0 54 5.1 W 13 17 7 9 1011.5 - 0.0
24/10:30pm 20.0 19.1 12.7 63 4.1 W 9 11 5 6 1011.4 - 0.0
24/10:00pm 21.4 20.9 8.0 42 7.0 CALM 0 2 0 1 1011.5 - 0.0
24/09:30pm 21.6 20.3 9.2 45 6.6 NNW 6 7 3 4 1011.4 - 0.0
24/09:00pm 22.0 20.1 8.9 43 7.0 NNW 9 11 5 6 1011.3 1011.2 0.0
24/08:30pm 23.5 21.7 9.5 41 7.6 N 9 11 5 6 1011.1 - 0.0
24/08:00pm 23.5 20.7 3.4 27 9.7 SE 7 11 4 6 1010.4 - 0.0
24/07:30pm 26.5 22.5 0.3 18 12.3 S 11 13 6 7 1010.0 - 0.0
24/07:00pm 27.9 23.8 -0.2 16 13.2 SSE 11 11 6 6 1009.6 - 0.0
24/06:30pm 29.8 25.5 -1.5 13 14.5 S 11 15 6 8 1009.3 - 0.0
24/06:00pm 32.0 26.5 -2.1 11 16.0 S 17 20 9 11 1009.1 1009.0 0.0
24/05:30pm 32.8 27.6 -2.8 10 16.5 S 15 22 8 12 1008.9 - 0.0
24/05:00pm 33.0 27.1 -2.6 10 16.6 S 19 28 10 15 1008.7 - 0.0
24/04:30pm 33.3 28.1 -2.4 10 16.7 S 15 24 8 13 1008.5 - 0.0
24/04:00pm 33.5 28.4 -2.3 10 16.8 SSE 15 28 8 15 1008.5 - 0.0
24/03:30pm 33.5 27.4 -2.3 10 16.8 SSW 20 32 11 17 1008.6 - 0.0
24/03:00pm 33.2 27.4 -1.2 11 16.5 SSW 19 28 10 15 1008.7 1008.6 0.0
24/02:30pm 32.2 26.7 -2.0 11 16.0 S 17 28 9 15 1009.0 - 0.0

Other Formats:

Comma delimited format used in spreadsheet applications
http://www.bom.gov.au/fwo/IDQ60801/IDQ60801.94260.axf

JavaScript Object Notation format (JSON) in row-major order
http://www.bom.gov.au/fwo/IDQ60801/IDQ60801.94260.json